Darstellungsparameter: Aktuell verwendete Einstellungen:
Skalierung der Graphiken ... ?
xyx+y,   Skalierungsfaktor:      Skalierung: Modus: x, Faktor: 1
Darstellungszeitraum ... ?
Vom - - bis: - -   Zeitraum: 18.08.2009 - 18.08.2009
Min/Max/Avg-Anzeige ... ?
Zeige MMA aktuell
Zeige MMA Monat
Zeige MMA alles
Zeige --A aktuell
Zeige --A Monat
Zeige --A alles
Keine MMA-Anzeige
MMA:
Average (ber die Originaldaten)
MMA-Basis: 23.02.2003 - 19.08.2019
Quicknavigation für Darstellung... ?
Tage:      1T, 2T, 3T, 5T -1T -2T -3T -5T +1T +2T +3T +5T
Wochen: 1W, 2W, 3W -1W -2W -3W +1W +2W +3W
Monate: 1M, 3M, 6M -1M -3M -6M +1M +3M +6M
Jahre:    1J, 3J, 5J, 10J -1J -3J -5J -10J +1J +3J +5J +10J
Nutze für die Darstellung ... ?
Originaldaten oder Mittelwerte auf ...
Stundenbasis Tagesbasis Wochenbasis
Monatsbasis Jahresbasis      Datenbasis: Original-Daten
Darstellen als:
Statistik (Auto) Statistik J:M      Darstellung:
Zur Graphik,    zurück zur Übersicht aller Sensoren.
 
Tabellarische Datenbersicht: ?
 
Sensor: Nr:Datum:Temp:Feuchte:Taupunkt:
Aussen-T/F 1 18-08-2009 00:08:55 20.2 C 55 % 10.88 C
2 18-08-2009 00:20:55 20 C 55 % 10.69 C
3 18-08-2009 00:32:55 20 C 56 % 10.96 C
4 18-08-2009 00:44:55 19.8 C 56 % 10.78 C
5 18-08-2009 00:56:55 19.5 C 56 % 10.5 C
6 18-08-2009 01:08:55 19.2 C 57 % 10.48 C
7 18-08-2009 01:20:56 19 C 57 % 10.3 C
8 18-08-2009 01:32:56 18.8 C 58 % 10.37 C
9 18-08-2009 01:44:56 18.6 C 59 % 10.44 C
10 18-08-2009 01:56:56 18.4 C 60 % 10.5 C
11 18-08-2009 02:08:56 18.3 C 60 % 10.41 C
12 18-08-2009 02:20:56 18.1 C 61 % 10.47 C
13 18-08-2009 02:32:56 18 C 61 % 10.37 C
14 18-08-2009 02:44:56 17.9 C 63 % 10.76 C
15 18-08-2009 02:56:56 17.7 C 64 % 10.81 C
16 18-08-2009 03:08:56 17.4 C 65 % 10.76 C
17 18-08-2009 03:20:56 17.2 C 66 % 10.8 C
18 18-08-2009 03:32:56 16.9 C 67 % 10.74 C
19 18-08-2009 03:44:56 16.6 C 69 % 10.89 C
20 18-08-2009 03:56:56 16.4 C 70 % 10.92 C
21 18-08-2009 04:08:56 16.2 C 73 % 11.36 C
22 18-08-2009 04:20:56 16.1 C 73 % 11.26 C
23 18-08-2009 04:32:56 15.8 C 74 % 11.18 C
24 18-08-2009 04:44:56 15.8 C 73 % 10.97 C
25 18-08-2009 04:56:56 15.6 C 74 % 10.99 C
Sensor: Nr:Datum:Temp:Feuchte:Taupunkt:
Aussen-T/F 26 18-08-2009 05:08:57 15.5 C 74 % 10.89 C
27 18-08-2009 05:20:57 15.3 C 76 % 11.1 C
28 18-08-2009 05:32:57 15.2 C 76 % 11 C
29 18-08-2009 05:44:57 14.9 C 78 % 11.1 C
30 18-08-2009 05:56:57 14.8 C 79 % 11.2 C
31 18-08-2009 06:08:57 14.6 C 80 % 11.19 C
32 18-08-2009 06:20:57 14.5 C 80 % 11.09 C
33 18-08-2009 06:32:57 14.2 C 81 % 10.99 C
34 18-08-2009 06:44:57 14.3 C 81 % 11.09 C
35 18-08-2009 06:56:57 14.3 C 81 % 11.09 C
36 18-08-2009 07:08:55 14.2 C 81 % 10.99 C
37 18-08-2009 07:20:55 14.3 C 82 % 11.27 C
38 18-08-2009 07:32:54 14.4 C 82 % 11.37 C
39 18-08-2009 07:44:55 14.3 C 82 % 11.27 C
40 18-08-2009 07:56:55 14.4 C 82 % 11.37 C
41 18-08-2009 08:08:54 14.4 C 82 % 11.37 C
42 18-08-2009 08:20:54 14.7 C 82 % 11.66 C
43 18-08-2009 08:32:54 14.9 C 81 % 11.67 C
44 18-08-2009 08:44:54 15.2 C 80 % 11.78 C
45 18-08-2009 08:56:54 15.4 C 79 % 11.78 C
46 18-08-2009 09:08:54 15.7 C 78 % 11.88 C
47 18-08-2009 09:20:53 16.2 C 77 % 12.17 C
48 18-08-2009 09:32:54 16.9 C 75 % 12.44 C
49 18-08-2009 09:44:53 17.5 C 71 % 12.19 C
50 18-08-2009 09:56:53 18.1 C 68 % 12.11 C
Sensor: Nr:Datum:Temp:Feuchte:Taupunkt:
Aussen-T/F 51 18-08-2009 10:08:53 18.5 C 66 % 12.03 C
52 18-08-2009 10:20:53 19.1 C 63 % 11.9 C
53 18-08-2009 10:32:53 19.5 C 60 % 11.53 C
54 18-08-2009 10:44:52 20.1 C 59 % 11.84 C
55 18-08-2009 10:56:52 20.7 C 55 % 11.34 C
56 18-08-2009 11:08:52 21.1 C 51 % 10.58 C
57 18-08-2009 11:20:53 21.6 C 46 % 9.49 C
58 18-08-2009 11:32:52 22 C 45 % 9.53 C
59 18-08-2009 11:44:52 22.2 C 42 % 8.69 C
60 18-08-2009 11:56:52 22.8 C 41 % 8.87 C
61 18-08-2009 12:08:52 23 C 38 % 7.93 C
62 18-08-2009 12:20:52 23.4 C 37 % 7.89 C
63 18-08-2009 12:32:51 24.2 C 36 % 8.2 C
64 18-08-2009 12:44:52 24.5 C 33 % 7.18 C
65 18-08-2009 12:56:52 24.3 C 32 % 6.56 C
66 18-08-2009 13:08:52 25.2 C 33 % 7.79 C
67 18-08-2009 13:20:51 26.1 C 30 % 7.18 C
68 18-08-2009 13:32:51 27.2 C 27 % 6.59 C
69 18-08-2009 13:44:51 27.6 C 25 % 5.81 C
70 18-08-2009 13:56:51 26.8 C 25 % 5.14 C
71 18-08-2009 14:08:51 27 C 25 % 5.31 C
72 18-08-2009 14:20:50 27.1 C 24 % 4.81 C
73 18-08-2009 14:32:51 28.3 C 23 % 5.2 C
74 18-08-2009 14:44:50 28.3 C 21 % 3.9 C
75 18-08-2009 14:56:50 28.8 C 20 % 3.62 C
Sensor: Nr:Datum:Temp:Feuchte:Taupunkt:
Aussen-T/F 76 18-08-2009 15:08:50 29.6 C 20 % 4.28 C
77 18-08-2009 15:20:50 30.3 C 20 % 4.85 C
78 18-08-2009 15:32:50 30.7 C 20 % 5.18 C
79 18-08-2009 15:44:50 30.7 C 20 % 5.18 C
80 18-08-2009 15:56:50 30.4 C 20 % 4.93 C
81 18-08-2009 16:08:49 30.3 C 20 % 4.85 C
82 18-08-2009 16:20:50 30.6 C 20 % 5.1 C
83 18-08-2009 16:32:49 30.9 C 20 % 5.34 C
84 18-08-2009 16:44:49 31.7 C 20 % 6 C
85 18-08-2009 16:56:49 32.1 C 20 % 6.32 C
86 18-08-2009 17:08:50 32.3 C 20 % 6.49 C
87 18-08-2009 17:20:49 32.3 C 20 % 6.49 C
88 18-08-2009 17:32:49 32.5 C 20 % 6.65 C
89 18-08-2009 17:44:48 32.5 C 20 % 6.65 C
90 18-08-2009 17:56:48 32.6 C 20 % 6.73 C
91 18-08-2009 18:08:49 32.9 C 20 % 6.98 C
92 18-08-2009 18:20:48 32.4 C 20 % 6.57 C
93 18-08-2009 18:32:48 31.8 C 20 % 6.08 C
94 18-08-2009 18:44:48 31.5 C 20 % 5.83 C
95 18-08-2009 18:56:48 31.8 C 20 % 6.08 C
96 18-08-2009 19:08:48 31.4 C 20 % 5.75 C
97 18-08-2009 19:20:48 30.3 C 22 % 6.22 C
98 18-08-2009 19:32:47 29.3 C 24 % 6.65 C
99 18-08-2009 19:44:48 28.7 C 25 % 6.74 C
100 18-08-2009 19:56:48 28.1 C 25 % 6.24 C
Sensor: Nr:Datum:Temp:Feuchte:Taupunkt:
Aussen-T/F 101 18-08-2009 20:08:47 26.6 C 26 % 5.53 C
102 18-08-2009 20:20:47 25.7 C 28 % 5.84 C
103 18-08-2009 20:32:47 25.2 C 30 % 6.41 C
104 18-08-2009 20:44:47 24.5 C 32 % 6.74 C
105 18-08-2009 20:56:47 24 C 35 % 7.61 C
106 18-08-2009 21:08:47 23.7 C 35 % 7.34 C
107 18-08-2009 21:20:46 23.4 C 36 % 7.49 C
108 18-08-2009 21:32:47 22.8 C 37 % 7.36 C
109 18-08-2009 21:44:46 22.5 C 40 % 8.24 C
110 18-08-2009 21:56:46 22.3 C 40 % 8.06 C
111 18-08-2009 22:08:46 22 C 40 % 7.79 C
112 18-08-2009 22:21:47 21.7 C 42 % 8.24 C
113 18-08-2009 22:33:47 21.4 C 42 % 7.97 C
114 18-08-2009 22:45:47 21.4 C 43 % 8.31 C
115 18-08-2009 22:57:47 20.9 C 44 % 8.2 C
116 18-08-2009 23:09:47 20.8 C 45 % 8.44 C
117 18-08-2009 23:21:47 20.5 C 46 % 8.49 C
118 18-08-2009 23:33:47 20.3 C 47 % 8.63 C
119 18-08-2009 23:45:47 20.1 C 48 % 8.76 C
120 18-08-2009 23:57:47 20 C 49 % 8.97 C

Legende:
   Min
   Max


Maximal/Minimal-Werte vom 23.02.2003 - 19.08.2019

Sensor Min Max Avg
Temp
(Aussen-T/F)
-16.4 °C
20-12-2009  01:30:01
40.4 °C
25-07-2019  16:20:00
11.22 °C
Feuchte
(Aussen-T/F)
18 %
17-07-2015  15:55:00
100 %
07-10-2012  03:05:00
76.99 %

Die Daten stammen von einer Davis Vantage Pro 2 Wetter-Station und werden unter Linux mit der Software wview2wettercgi und aufbereitet. Alle Angaben erfolgen ohne Gewähr für ihre Vollständigkeit oder Richtigkeit.
Kontakt: Rainer Krienke krienke@uni-koblenz.de . Meine Webseiten an der Uni Koblenz oder privat.
Version: $Revision: 0.78 $